Tamsweg, Austria
Current Conditions -  °F | °C
As of 6:20 PM on Wednesday 26 Nov 2014 (Local Time) from LOWK Reporting Station
Broken Clouds Broken Clouds  
Wind Chill: 36°   Ceiling: 2500
Heat Index: 39°   Visibility: 6mi
Dew Point: 32°   Wind: 5mph
Humidity: 75%   Direction: 100°E
Pressure: 30.09"   Gusts: NA
Location:  47.14°N, 13.8°E
Report Text: LOWK 261620Z 10004KT 060V130 9999 FEW010 BKN025 04/00 Q1019 NOSIG
Loading
Personal Weather Stations






























Interactive Weather Map New forecast layout! Learn more

10-Day Weather Forecast

Advertisements
Track Severe Weather on mobile